weather.gov     
National Weather Service

Terminal Aerodrome Forecast
NWS Homepage
This page is being discontinued on March 12, 2014.
The same data is available at this site. Please update your bookmarks.
Thank you, and we apologize for the inconvenience.
Please send an email to SR-SRH.Webmaster@noaa.gov with any concerns.


Current Version
Previous Version:    01  02  03  04  05  06  07  08  09  10  11  12  13  14  15  16  17  18  19  20  21  22  23  24  25  26  27  28  29  30  
   31  32  33  34  35  36  37  
[Printable]
732
FTUS43 KGID 240717 AAA
TAFGRI
TAF AMD
KGRI 240717Z 2407/2506 36006KT 6SM -RA VCTS BKN015 OVC070CB
      TEMPO 2407/2408 VRB06KT 3SM BR BKN009
     FM240900 32014G20KT P6SM SCT020 OVC090
     FM241600 34020G30KT P6SM FEW250
     FM250000 30008KT P6SM SKC=


732
FTUS43 KGID 240717 AAA
TAFGRI
TAF AMD
KGRI 240717Z 2407/2506 36006KT 6SM -RA VCTS BKN015 OVC070CB
      TEMPO 2407/2408 VRB06KT 3SM BR BKN009
     FM240900 32014G20KT P6SM SCT020 OVC090
     FM241600 34020G30KT P6SM FEW250
     FM250000 30008KT P6SM SKC=




U.S. Dept. of Commerce
NOAA National Weather Service
1325 East West Highway
Silver Spring, MD 20910
E-mail: w-nws.webmaster@noaa.gov
Page last modified: May 16, 2007
NATIONAL WEATHER SERVICE: for Safety, for Work, for Fun - FOR LIFE